Flight Track Log - Related Links

Times and Time Zones

All times are in EDT time to prevent confusion due to time zone crossing. See the EJA396 flight status page for this flight to view local times or setup timezone preferences in your user account.

Time Position Orientation Groundspeed Altitude Reporting Facility
EDT Latitude Longitude Course Direction KTS MPH feet Rate Location/Type
Wed 04:53:14 PM 40.8333 -74.1000 252° West 198 228 1,600  Level New York TRACON
Wed 04:54:14 PM 40.8167 -74.1667 252° West 188 216 2,400 1,900 Climbing New York TRACON
Wed 04:55:14 PM 40.8333 -74.2500 285° West 252 290 5,400 1,850 Climbing New York TRACON
Wed 04:56:14 PM 40.9000 -74.2500 360° North 314 361 6,100 368 Climbing New York TRACON
Wed 04:57:08 PM 40.9833 -74.2167 17° North 317 365 6,100  Level New York TRACON
Wed 04:58:14 PM 41.0667 -74.1667 24° Northeast 314 361 6,100  Level New York TRACON
Wed 04:59:08 PM 41.1500 -74.1333 17° North 320 368 6,100 949 Level New York TRACON
Wed 05:00:52 PM 41.2003 -73.9492 70° East 328 377 8,600 1,720 Climbing Boston Center
Wed 05:01:52 PM 41.2183 -73.8475 77° East 320 368 10,800 3,350 Climbing Boston Center
Wed 05:02:52 PM 41.1950 -73.7117 103° East 320 368 15,300 3,150 Climbing Boston Center
Wed 05:03:52 PM 41.2400 -73.5911 64° Northeast 349 402 17,100 1,750 Climbing Boston Center
Wed 05:04:52 PM 41.3244 -73.4878 43° Northeast 379 436 18,800 1,750 Climbing Boston Center
Wed 05:05:52 PM 41.4128 -73.3950 38° Northeast 400 460 20,600 1,900 Climbing Boston Center
Wed 05:06:52 PM 41.4989 -73.2883 43° Northeast 415 478 22,600 1,200 Climbing Boston Center
Wed 05:07:52 PM 41.6061 -73.1869 35° Northeast 421 484 23,000 200 Climbing Boston Center
Wed 05:08:52 PM 41.7231 -73.1383 17° North 424 488 23,000 300 Level Boston Center
Wed 05:09:52 PM 41.8481 -73.1425 359° North 424 488 23,600 800 Climbing Boston Center
Wed 05:10:52 PM 41.9667 -73.1633 353° North 424 488 24,600 700 Climbing Boston Center
Wed 05:11:52 PM 42.0875 -73.1869 352° North 429 494 25,000 200 Climbing Boston Center
Wed 05:12:52 PM 42.2122 -73.2081 353° North 434 499 25,000  Level Boston Center
Wed 05:13:52 PM 42.3372 -73.2322 352° North 445 512 25,000  Level Boston Center
Wed 05:14:52 PM 42.4497 -73.2447 355° North 451 519 25,000  Level Boston Center
Wed 05:15:52 PM 42.5744 -73.2633 354° North 451 519 25,000  Level Boston Center
Wed 05:16:52 PM 42.6869 -73.2931 349° North 451 519 25,000  Level Boston Center
Wed 05:17:52 PM 42.8389 -73.3178 353° North 451 519 25,000  Level Boston Center
Wed 05:18:52 PM 42.9617 -73.3394 353° North 451 519 25,000  Level Boston Center
Wed 05:19:52 PM 43.0908 -73.3356 North 446 513 25,000  Level Boston Center
Wed 05:20:52 PM 43.2139 -73.3233 North 446 513 25,000  Level Boston Center
Wed 05:21:52 PM 43.3433 -73.3081 North 452 520 25,000  Level Boston Center
Wed 05:22:52 PM 43.4683 -73.2897 North 452 520 25,000  Level Boston Center
Wed 05:23:52 PM 43.5956 -73.2772 North 452 520 25,000 -450 Level Boston Center
Wed 05:24:52 PM 43.7269 -73.2617 North 458 527 24,100 -1,650 Descending Boston Center
Wed 05:25:52 PM 43.8458 -73.2489 North 458 527 21,700 -2,350 Descending Boston Center
Wed 05:26:52 PM 43.9503 -73.2358 North 428 493 19,400 -2,400 Descending Boston Center
Wed 05:27:52 PM 44.0586 -73.2231 North 397 457 16,900 -2,400 Descending Boston Center
Wed 05:28:52 PM 44.1628 -73.2331 356° North 372 428 14,600 -2,350 Descending Boston Center
Wed 05:29:52 PM 44.2564 -73.2517 352° North 344 396 12,200 -2,400 Descending Boston Center
Wed 05:30:52 PM 44.3458 -73.2644 354° North 327 376 9,800 -2,350 Descending Boston Center
Wed 05:31:52 PM 44.4144 -73.2917 344° North 286 329 7,500 -2,550 Descending Boston Center
Wed 05:32:52 PM 44.4683 -73.3447 325° Northwest 247 284 4,700 -2,300 Descending Boston Center
Wed 05:33:52 PM 44.5225 -73.3456 359° North 194 223 2,900 -1,250 Descending Boston Center
Wed 05:34:52 PM 44.5394 -73.2847 69° East 150 173 2,200 -650 Descending Boston Center
Wed 05:35:52 PM 44.5211 -73.2350 117° Southeast 125 144 1,600 -650 Descending Boston Center
Wed 05:36:52 PM 44.4983 -73.1997 132° Southeast 118 136 900 -600 Descending Boston Center
Wed 05:37:52 PM 44.4778 -73.1644 129° Southeast 118 136 400 -250 Descending Boston Center
Wed 05:38:52 PM 44.4694 -73.1528 135° Southeast 88 101 400  Level Boston Center

Login

Don't have an account? Register now (free) for customized features, flight alerts, and more!